Friday, December 14, 2018, 6:57 PM EST
Back to Local

KACK, Nantucket Memorial Airport

Location: Nantucket, MA, United States Lat: 41.25
Local Time: 6:57 PM EST (23:57 GMT) Lon: -70.067
Time Zone: US/Eastern Elev: 49 ft

Show me the last for .
Show Decoded

2018-12-14 17:53 METAR KACK 142253Z 11005KT 10SM SCT016 06/04 A3039 RMK AO2 SLP292 T00560044 =
2018-12-14 17:51 METAR KACK 142251Z 11004KT 10SM SCT016 06/04 A3039 RMK AO2 =
2018-12-14 16:53 METAR KACK 142153Z 10004KT 10SM OVC018 06/04 A3041 RMK AO2 SLP296 T00610044 =
2018-12-14 15:53 METAR KACK 142053Z 11005KT 10SM OVC028 07/05 A3041 RMK AO2 SLP296 T00670050
                 56009 =
2018-12-14 15:31 METAR KACK 142031Z 11005KT 10SM BKN029 07/05 A3041 RMK AO2 T00720050 =
2018-12-14 14:53 METAR KACK 141953Z 11005KT 10SM CLR 07/04 A3041 RMK AO2 SLP299 T00720044 =
2018-12-14 13:53 METAR KACK 141853Z 11005KT 10SM CLR 07/04 A3042 RMK AO2 SLP301 T00720044 =
2018-12-14 12:53 METAR KACK 141753Z 12010KT 10SM CLR 08/04 A3043 RMK AO2 SLP305 T00780044 10078
                 20000 56034 =
2018-12-14 11:53 METAR KACK 141653Z 13009KT 10SM CLR 08/04 A3047 RMK AO2 SLP316 T00780039 =
2018-12-14 10:53 METAR KACK 141553Z 13011KT 10SM CLR 07/03 A3050 RMK AO2 SLP326 T00720028 =
2018-12-14 09:53 METAR KACK 141453Z 13010KT 10SM CLR 07/02 A3053 RMK AO2 SLP339 T00720022 53001 =
2018-12-14 08:53 METAR KACK 141353Z 12010KT 10SM CLR 06/02 A3053 RMK AO2 SLP339 T00560022 =
2018-12-14 07:53 METAR KACK 141253Z 10006KT 10SM CLR 02/00 A3053 RMK AO2 SLP338 T00220000 =
2018-12-14 06:53 METAR KACK 141153Z 14005KT 10SM CLR 01/M01 A3053 RMK AO2 SLP338 T00111011 10011
                 21033 53002 =
2018-12-14 05:53 METAR KACK 141053Z 12005KT 10SM CLR 00/M02 A3054 RMK AO2 SLP341 T00001022 =
2018-12-14 04:53 METAR KACK 140953Z AUTO 08006KT 10SM CLR 01/M03 A3051 RMK AO2 SLP333 T00061028 =
2018-12-14 03:53 METAR KACK 140853Z AUTO 10005KT 10SM CLR 00/M03 A3053 RMK AO2 SLP337 T00001033
                 58006 =
2018-12-14 02:53 METAR KACK 140753Z AUTO 09005KT 10SM CLR M01/M03 A3055 RMK AO2 SLP343 T10061033
                 =
2018-12-14 01:53 METAR KACK 140653Z AUTO 11005KT 10SM CLR 01/M03 A3056 RMK AO2 SLP348 T00061028 =
2018-12-14 00:53 METAR KACK 140553Z AUTO 10006KT 10SM CLR 00/M03 A3054 RMK AO2 SLP343 T00001033
                 10011 21011 55006 =
2018-12-13 23:53 METAR KACK 140453Z AUTO 08006KT 10SM CLR 00/M03 A3054 RMK AO2 SLP342 T00001033
                 400331050 =
2018-12-13 22:53 METAR KACK 140353Z AUTO 09005KT 10SM CLR M01/M04 A3056 RMK AO2 SLP348 T10061039
                 =
2018-12-13 21:53 METAR KACK 140253Z AUTO 07005KT 10SM OVC100 00/M04 A3056 RMK AO2 SLP349
                 T00001039 51003 =
2018-12-13 20:53 METAR KACK 140153Z AUTO 08005KT 10SM SCT110 01/M04 A3056 RMK AO2 SLP347
                 T00061039 =
2018-12-13 19:53 METAR KACK 140053Z 08005KT 10SM FEW085 BKN120 M01/M04 A3056 RMK AO2 SLP347
                 T10111044 =

Support USWX by starting your Amazon purchase here.